Terminal Aerodrome Forecast
Issued by NWS

Home | Current Version | Previous Version | Text Only | Print | Product List | Glossary On
Versions: 1 2 3 4 5 6 7 8 9 10 11 12 13 14 15 16 17 18 19 20 21 22 23 24
000
FTUS43 KDMX 020520
TAFMCW
TAF
KMCW 020520Z 0206/0306 00000KT 6SM BR SKC
     FM020900 00000KT 3SM BR SCT004
      TEMPO 0210/0212 1SM BR
     FM021300 VRB03KT P6SM SKC
     FM021700 20005KT P6SM BKN045
     FM030200 17003KT P6SM SCT050 BKN200=

USA.gov is the U.S. government's official web portal to all federal, state and local government web resources and services.